createdAt,value
2018-08-17T00:00:47.157Z,13.50
2018-08-17T00:03:15.716Z,13.50
2018-08-17T00:05:44.192Z,13.50
2018-08-17T00:08:12.724Z,13.40
2018-08-17T00:10:41.453Z,13.40
2018-08-17T00:13:10.012Z,13.30
2018-08-17T00:15:38.447Z,13.30
2018-08-17T00:18:06.993Z,13.20
2018-08-17T00:20:35.432Z,13.20
2018-08-17T00:23:04.006Z,13.20
2018-08-17T00:25:32.516Z,13.20
2018-08-17T00:28:00.982Z,13.20
2018-08-17T00:30:29.488Z,13.20
2018-08-17T00:32:57.925Z,13.10
2018-08-17T00:35:26.370Z,13.10
2018-08-17T00:37:54.861Z,13.10
2018-08-17T00:40:23.308Z,13.00
2018-08-17T00:42:51.762Z,13.00
2018-08-17T00:45:20.289Z,12.90
2018-08-17T00:47:48.732Z,12.90
2018-08-17T00:50:17.220Z,12.80
2018-08-17T00:52:45.642Z,12.80
2018-08-17T00:55:14.087Z,12.70
2018-08-17T00:57:42.565Z,12.80
2018-08-17T01:00:11.104Z,12.80
2018-08-17T01:02:39.581Z,12.80
2018-08-17T01:05:08.032Z,12.70
2018-08-17T01:07:36.500Z,12.70
2018-08-17T01:10:05.875Z,12.60
2018-08-17T01:12:34.447Z,12.60
2018-08-17T01:15:02.894Z,12.60
2018-08-17T01:17:31.327Z,12.60
2018-08-17T01:19:59.805Z,12.50
2018-08-17T01:22:28.265Z,12.50
2018-08-17T01:24:56.741Z,12.50
2018-08-17T01:27:25.174Z,12.40
2018-08-17T01:29:53.622Z,12.40
2018-08-17T01:32:22.034Z,12.30
2018-08-17T01:34:50.477Z,12.30
2018-08-17T01:37:18.920Z,12.30
2018-08-17T01:39:47.464Z,12.30
2018-08-17T01:42:15.851Z,12.30
2018-08-17T01:44:44.412Z,12.30
2018-08-17T01:47:12.872Z,12.20
2018-08-17T01:49:41.328Z,12.20
2018-08-17T01:52:09.792Z,12.10
2018-08-17T01:54:38.238Z,12.10
2018-08-17T01:57:06.864Z,12.00
2018-08-17T01:59:35.328Z,12.00
2018-08-17T02:02:03.840Z,11.90
2018-08-17T02:04:32.312Z,12.00
2018-08-17T02:07:00.795Z,12.00
2018-08-17T02:09:29.251Z,12.00
2018-08-17T02:11:57.773Z,12.00
2018-08-17T02:14:26.252Z,12.00
2018-08-17T02:16:54.745Z,12.00
2018-08-17T02:19:23.276Z,11.90
2018-08-17T02:21:52.330Z,11.90
2018-08-17T02:24:20.929Z,11.90
2018-08-17T02:26:49.367Z,12.00
2018-08-17T02:29:17.858Z,11.90
2018-08-17T02:31:46.325Z,11.90
2018-08-17T02:34:14.881Z,11.90
2018-08-17T02:36:43.428Z,11.80
2018-08-17T02:39:11.870Z,11.80
2018-08-17T02:41:40.505Z,11.70
2018-08-17T02:44:09.000Z,11.70
2018-08-17T02:46:37.491Z,11.70
2018-08-17T02:49:06.114Z,11.70
2018-08-17T02:51:34.573Z,11.60
2018-08-17T02:54:03.805Z,11.50
2018-08-17T02:56:32.335Z,11.50
2018-08-17T02:59:00.833Z,11.60
2018-08-17T03:01:29.301Z,11.60
2018-08-17T03:03:57.753Z,11.60
2018-08-17T03:06:26.206Z,11.50
2018-08-17T03:08:54.717Z,11.50
2018-08-17T03:11:23.169Z,11.50
2018-08-17T03:13:51.697Z,11.40
2018-08-17T03:16:20.163Z,11.40
2018-08-17T03:18:48.696Z,11.30
2018-08-17T03:21:17.150Z,11.30
2018-08-17T03:23:45.603Z,11.30
2018-08-17T03:26:14.061Z,11.30
2018-08-17T03:28:42.701Z,11.30
2018-08-17T03:31:11.130Z,11.30
2018-08-17T03:33:39.581Z,11.30
2018-08-17T03:36:08.016Z,11.20
2018-08-17T03:38:36.491Z,11.20
2018-08-17T03:41:04.992Z,11.30
2018-08-17T03:43:33.452Z,11.20
2018-08-17T03:46:01.979Z,11.10
2018-08-17T03:48:30.502Z,11.10
2018-08-17T03:50:58.915Z,11.00
2018-08-17T03:53:27.328Z,11.10
2018-08-17T03:55:55.820Z,11.10
2018-08-17T03:58:24.363Z,11.10
2018-08-17T04:00:53.184Z,11.10
2018-08-17T04:03:21.668Z,11.10
2018-08-17T04:05:50.198Z,11.00
2018-08-17T04:08:18.692Z,11.00
2018-08-17T04:10:47.127Z,10.90
2018-08-17T04:13:16.162Z,10.90
2018-08-17T04:15:44.615Z,10.80
2018-08-17T04:18:13.041Z,10.80
2018-08-17T04:20:41.496Z,10.90
2018-08-17T04:23:09.936Z,10.90
2018-08-17T04:25:38.456Z,10.90
2018-08-17T04:28:07.193Z,10.90
2018-08-17T04:30:35.641Z,10.90
2018-08-17T04:33:04.072Z,10.90
2018-08-17T04:35:32.574Z,10.90
2018-08-17T04:38:01.094Z,10.90
2018-08-17T04:40:29.592Z,10.90
2018-08-17T04:42:58.188Z,10.90
2018-08-17T04:45:26.742Z,10.90
2018-08-17T04:47:55.181Z,11.00
2018-08-17T04:50:23.624Z,11.00
2018-08-17T04:52:52.036Z,11.10
2018-08-17T04:55:20.578Z,11.20
2018-08-17T04:57:49.116Z,11.20
2018-08-17T05:00:17.635Z,11.30
2018-08-17T05:02:46.132Z,11.30
2018-08-17T05:05:15.292Z,11.40
2018-08-17T05:07:43.813Z,11.40
2018-08-17T05:10:12.231Z,11.50
2018-08-17T05:12:40.648Z,11.60
2018-08-17T05:15:09.173Z,11.70
2018-08-17T05:17:38.513Z,11.80
2018-08-17T05:20:07.042Z,11.80
2018-08-17T05:22:35.487Z,11.80
2018-08-17T05:25:03.974Z,11.90
2018-08-17T05:27:32.396Z,12.00
2018-08-17T05:30:00.815Z,12.10
2018-08-17T05:32:29.220Z,12.10
2018-08-17T05:34:57.724Z,12.20
2018-08-17T05:37:26.336Z,12.30
2018-08-17T05:39:54.871Z,12.40
2018-08-17T05:42:23.280Z,12.50
2018-08-17T05:44:51.703Z,12.60
2018-08-17T05:47:20.253Z,12.60
2018-08-17T05:49:48.721Z,12.70
2018-08-17T05:52:17.167Z,12.80
2018-08-17T05:54:45.624Z,12.90
2018-08-17T05:57:14.097Z,13.10
2018-08-17T05:59:42.553Z,13.30
2018-08-17T06:02:11.020Z,13.30
2018-08-17T06:04:39.673Z,13.30
2018-08-17T06:07:08.223Z,13.50
2018-08-17T06:09:37.395Z,13.70
2018-08-17T06:12:05.996Z,13.90
2018-08-17T06:14:34.442Z,14.10
2018-08-17T06:17:03.012Z,14.30
2018-08-17T06:19:31.468Z,14.40
2018-08-17T06:21:59.957Z,14.60
2018-08-17T06:24:28.480Z,14.70
2018-08-17T06:26:56.982Z,14.90
2018-08-17T06:29:25.459Z,15.20
2018-08-17T06:31:53.930Z,15.50
2018-08-17T06:34:22.569Z,15.80
2018-08-17T06:36:51.727Z,16.00
2018-08-17T06:39:20.288Z,16.40
2018-08-17T06:41:48.789Z,16.70
2018-08-17T06:44:17.241Z,16.90
2018-08-17T06:46:45.705Z,17.10
2018-08-17T06:49:14.294Z,17.40
2018-08-17T06:51:42.876Z,17.80
2018-08-17T06:54:11.317Z,18.20
2018-08-17T06:56:39.968Z,18.40
2018-08-17T06:59:08.438Z,18.70
2018-08-17T07:01:36.936Z,18.80
2018-08-17T07:04:05.408Z,19.30
2018-08-17T07:06:33.828Z,19.50
2018-08-17T07:09:02.379Z,19.40
2018-08-17T07:11:30.813Z,19.60
2018-08-17T07:13:59.242Z,19.80
2018-08-17T07:16:27.689Z,20.00
2018-08-17T07:18:56.176Z,20.20
2018-08-17T07:21:24.640Z,20.60
2018-08-17T07:23:53.091Z,21.00
2018-08-17T07:26:21.566Z,21.30
2018-08-17T07:28:50.113Z,21.60
2018-08-17T07:31:18.665Z,22.10
2018-08-17T07:33:47.144Z,22.40
2018-08-17T07:36:15.605Z,22.40
2018-08-17T07:38:44.148Z,22.70
2018-08-17T07:41:12.776Z,22.90
2018-08-17T07:43:41.300Z,23.10
2018-08-17T07:46:10.566Z,23.40
2018-08-17T07:48:39.109Z,23.30
2018-08-17T07:51:07.586Z,23.60
2018-08-17T07:53:36.076Z,23.90
2018-08-17T07:56:04.688Z,24.30
2018-08-17T07:58:33.095Z,24.60
2018-08-17T08:01:01.573Z,24.90
2018-08-17T08:03:30.094Z,25.00
2018-08-17T08:05:58.759Z,25.10
2018-08-17T08:08:27.221Z,25.00
2018-08-17T08:10:55.737Z,25.00
2018-08-17T08:13:24.148Z,25.20
2018-08-17T08:15:53.420Z,25.40
2018-08-17T08:18:22.460Z,25.30
2018-08-17T08:20:50.957Z,25.30
2018-08-17T08:23:29.457Z,25.70
2018-08-17T08:25:58.259Z,26.00
2018-08-17T08:28:26.732Z,26.10
2018-08-17T08:30:55.271Z,26.10
2018-08-17T08:33:23.835Z,26.10
2018-08-17T08:35:52.344Z,26.50
2018-08-17T08:38:21.063Z,26.80
2018-08-17T08:40:49.545Z,26.90
2018-08-17T08:43:18.003Z,27.30
2018-08-17T08:45:46.460Z,27.20
2018-08-17T08:48:14.927Z,27.20
2018-08-17T08:50:43.432Z,27.20
2018-08-17T08:53:11.964Z,27.60
2018-08-17T08:55:40.492Z,27.90
2018-08-17T08:58:08.959Z,27.80
2018-08-17T09:00:37.400Z,28.10
2018-08-17T09:03:06.734Z,28.10
2018-08-17T09:05:35.345Z,28.50
2018-08-17T09:08:03.911Z,28.70
2018-08-17T09:10:32.412Z,28.50
2018-08-17T09:13:01.642Z,28.10
2018-08-17T09:15:30.134Z,27.90
2018-08-17T09:17:58.841Z,28.20
2018-08-17T09:20:27.498Z,28.60
2018-08-17T09:22:55.761Z,28.80
2018-08-17T09:25:24.243Z,28.70
2018-08-17T09:27:52.838Z,28.30
2018-08-17T09:30:21.423Z,28.70
2018-08-17T09:32:49.881Z,29.20
2018-08-17T09:35:18.335Z,28.90
2018-08-17T09:37:46.750Z,29.00
2018-08-17T09:40:15.268Z,29.00
2018-08-17T09:42:43.664Z,29.30
2018-08-17T09:45:13.312Z,29.70
2018-08-17T09:47:41.807Z,29.50
2018-08-17T09:50:12.886Z,29.50
2018-08-17T09:52:41.341Z,29.40
2018-08-17T09:55:10.529Z,29.60
2018-08-17T09:57:39.019Z,29.80
2018-08-17T10:00:09.602Z,29.60
2018-08-17T10:02:43.545Z,29.90
2018-08-17T10:05:17.544Z,29.90
2018-08-17T10:07:51.408Z,30.10
2018-08-17T10:10:21.629Z,30.70
2018-08-17T10:12:51.134Z,30.00
2018-08-17T10:15:19.648Z,30.70
2018-08-17T10:17:48.324Z,30.90
2018-08-17T10:20:20.062Z,31.30
2018-08-17T10:22:48.651Z,31.50
2018-08-17T10:25:18.428Z,31.30
2018-08-17T10:27:48.360Z,31.50
2018-08-17T10:30:17.778Z,31.70
2018-08-17T10:32:50.615Z,31.50
2018-08-17T10:35:23.429Z,31.60
2018-08-17T10:37:53.908Z,32.10
2018-08-17T10:40:22.773Z,32.80
2018-08-17T10:42:51.372Z,33.20
2018-08-17T10:45:20.963Z,32.60
2018-08-17T10:47:50.646Z,33.00
2018-08-17T10:50:20.461Z,33.00
2018-08-17T10:52:51.113Z,32.00
2018-08-17T10:55:20.134Z,32.40
2018-08-17T10:57:48.576Z,32.40
2018-08-17T11:00:18.512Z,32.30
2018-08-17T11:02:47.229Z,31.20
2018-08-17T11:05:16.765Z,31.10
2018-08-17T11:07:46.449Z,31.30
2018-08-17T11:10:14.876Z,31.60
2018-08-17T11:12:45.121Z,31.40
2018-08-17T11:15:13.638Z,31.80
2018-08-17T11:17:44.437Z,31.30
2018-08-17T11:20:13.234Z,30.70
2018-08-17T11:22:41.736Z,30.30
2018-08-17T11:25:11.264Z,30.10
2018-08-17T11:27:40.697Z,29.80
2018-08-17T11:30:16.094Z,29.80
2018-08-17T11:32:44.597Z,29.90
2018-08-17T11:35:13.194Z,29.70
2018-08-17T11:37:41.637Z,30.40
2018-08-17T11:40:11.292Z,31.00
2018-08-17T11:42:44.800Z,31.80
2018-08-17T11:45:17.472Z,32.40
2018-08-17T11:47:46.602Z,32.70
2018-08-17T11:50:17.829Z,32.60
2018-08-17T11:53:00.784Z,32.90
2018-08-17T11:55:30.867Z,32.90
2018-08-17T11:57:59.312Z,31.60
2018-08-17T12:00:34.382Z,31.00
2018-08-17T12:03:02.841Z,30.50
2018-08-17T12:05:31.359Z,31.10
2018-08-17T12:07:59.898Z,32.00
2018-08-17T12:10:28.263Z,32.40
2018-08-17T12:13:03.340Z,32.50
2018-08-17T12:15:36.390Z,32.50
2018-08-17T12:18:05.185Z,32.50
2018-08-17T12:20:33.641Z,32.70
2018-08-17T12:23:02.158Z,32.30
2018-08-17T12:25:30.645Z,32.60
2018-08-17T12:28:02.110Z,32.30
2018-08-17T12:30:30.585Z,31.80
2018-08-17T12:32:59.048Z,31.10
2018-08-17T12:35:27.491Z,31.30
2018-08-17T12:38:01.156Z,32.00
2018-08-17T12:40:36.063Z,31.40
2018-08-17T12:43:04.516Z,31.00
2018-08-17T12:45:33.069Z,30.70
2018-08-17T12:48:02.109Z,30.30
2018-08-17T12:50:33.254Z,30.50
2018-08-17T12:53:02.450Z,31.10
2018-08-17T12:55:31.726Z,31.30
2018-08-17T12:58:00.723Z,31.50
2018-08-17T13:00:29.257Z,32.40
2018-08-17T13:03:01.723Z,32.40
2018-08-17T13:05:32.377Z,32.50
2018-08-17T13:08:00.901Z,32.60
2018-08-17T13:10:29.786Z,33.10
2018-08-17T13:13:03.684Z,33.80
2018-08-17T13:15:32.169Z,33.90
2018-08-17T13:18:09.681Z,33.60
2018-08-17T13:20:38.511Z,33.40
2018-08-17T13:23:07.081Z,33.50
2018-08-17T13:25:35.480Z,33.80
2018-08-17T13:28:04.829Z,34.00
2018-08-17T13:30:33.216Z,34.00
2018-08-17T13:33:01.714Z,33.80
2018-08-17T13:35:30.180Z,33.60
2018-08-17T13:37:59.192Z,32.90
2018-08-17T13:40:27.732Z,33.10
2018-08-17T13:42:56.568Z,33.10
2018-08-17T13:45:25.974Z,33.00
2018-08-17T13:47:55.233Z,32.50
2018-08-17T13:50:23.794Z,32.20
2018-08-17T13:52:52.269Z,31.80
2018-08-17T13:55:20.801Z,31.30
2018-08-17T13:57:49.384Z,31.00
2018-08-17T14:00:17.841Z,31.10
2018-08-17T14:02:46.447Z,31.60
2018-08-17T14:05:14.886Z,32.10
2018-08-17T14:07:43.316Z,32.30
2018-08-17T14:10:12.240Z,32.50
2018-08-17T14:12:40.621Z,32.00
2018-08-17T14:15:09.867Z,31.40
2018-08-17T14:17:39.000Z,31.30
2018-08-17T14:20:11.188Z,31.00
2018-08-17T14:22:39.782Z,30.80
2018-08-17T14:25:08.884Z,30.70
2018-08-17T14:27:37.409Z,30.60
2018-08-17T14:30:11.417Z,30.60
2018-08-17T14:32:39.998Z,30.30
2018-08-17T14:35:08.511Z,29.90
2018-08-17T14:37:37.075Z,29.40
2018-08-17T14:43:08.494Z,28.60
2018-08-17T14:45:36.977Z,28.20
2018-08-17T14:48:06.531Z,27.80
2018-08-17T14:50:35.021Z,27.50
2018-08-17T14:53:03.507Z,27.10
2018-08-17T14:55:32.757Z,26.50
2018-08-17T14:58:01.313Z,26.30
2018-08-17T15:00:29.897Z,25.60
2018-08-17T15:02:58.420Z,24.10
2018-08-17T15:05:26.895Z,22.60
2018-08-17T15:07:55.409Z,21.20
2018-08-17T15:10:23.905Z,20.60
2018-08-17T15:12:52.668Z,20.10
2018-08-17T15:15:21.108Z,19.80
2018-08-17T15:17:49.579Z,19.30
2018-08-17T15:20:18.083Z,18.70
2018-08-17T15:22:46.579Z,18.70
2018-08-17T15:25:15.108Z,18.70
2018-08-17T15:27:43.602Z,18.60
2018-08-17T15:30:12.780Z,18.40
2018-08-17T15:32:42.032Z,18.40
2018-08-17T15:35:11.676Z,18.50
2018-08-17T15:37:40.707Z,18.30
2018-08-17T15:40:11.317Z,18.20
2018-08-17T15:42:40.168Z,18.20
2018-08-17T15:45:09.186Z,18.10
2018-08-17T15:47:38.201Z,18.10
2018-08-17T15:50:12.913Z,18.30
2018-08-17T15:52:41.689Z,18.30
2018-08-17T15:55:10.344Z,18.40
2018-08-17T15:57:38.975Z,18.50
2018-08-17T16:00:09.681Z,18.40
2018-08-17T16:02:38.203Z,18.50
2018-08-17T16:05:07.158Z,18.60
2018-08-17T16:07:35.645Z,18.80
2018-08-17T16:10:04.806Z,18.70
2018-08-17T16:12:33.340Z,18.70
2018-08-17T16:15:01.806Z,18.90
2018-08-17T16:17:30.284Z,19.00
2018-08-17T16:19:58.810Z,19.20
2018-08-17T16:22:27.265Z,19.40
2018-08-17T16:24:55.724Z,19.70
2018-08-17T16:27:24.896Z,19.90
2018-08-17T16:29:53.427Z,20.10
2018-08-17T16:32:21.995Z,20.20
2018-08-17T16:34:50.577Z,20.30
2018-08-17T16:37:19.214Z,20.40
2018-08-17T16:39:55.434Z,20.50
2018-08-17T16:42:29.132Z,20.70
2018-08-17T16:44:57.717Z,20.80
2018-08-17T16:47:26.514Z,20.90
2018-08-17T16:49:55.204Z,21.00
2018-08-17T16:52:24.256Z,21.10
2018-08-17T16:54:53.140Z,21.20
2018-08-17T16:57:21.581Z,21.20
2018-08-17T16:59:50.021Z,21.10
2018-08-17T17:02:18.543Z,20.90
2018-08-17T17:04:47.095Z,20.90
2018-08-17T17:07:15.592Z,20.80
2018-08-17T17:09:44.056Z,20.80
2018-08-17T17:12:15.763Z,20.70
2018-08-17T17:14:44.963Z,20.70
2018-08-17T17:17:13.796Z,20.70
2018-08-17T17:19:42.284Z,20.80
2018-08-17T17:22:10.851Z,20.80
2018-08-17T17:24:40.849Z,20.60
2018-08-17T17:27:09.283Z,20.60
2018-08-17T17:29:38.270Z,20.50
2018-08-17T17:32:07.289Z,20.40
2018-08-17T17:34:36.294Z,20.20
2018-08-17T17:37:04.751Z,20.10
2018-08-17T17:39:33.204Z,20.00
2018-08-17T17:42:02.675Z,20.00
2018-08-17T17:44:31.241Z,19.80
2018-08-17T17:47:00.488Z,19.80
2018-08-17T17:49:28.921Z,19.70
2018-08-17T17:51:57.592Z,19.50
2018-08-17T17:54:26.402Z,19.30
2018-08-17T17:57:00.452Z,19.10
2018-08-17T17:59:29.487Z,19.00
2018-08-17T18:01:57.956Z,19.00
2018-08-17T18:04:30.907Z,18.80
2018-08-17T18:06:59.993Z,18.70
2018-08-17T18:09:28.473Z,18.60
2018-08-17T18:11:57.071Z,18.50
2018-08-17T18:14:25.592Z,18.50
2018-08-17T18:16:54.109Z,18.40
2018-08-17T18:19:23.641Z,18.30
2018-08-17T18:21:53.201Z,18.20
2018-08-17T18:24:21.617Z,18.20
2018-08-17T18:26:51.009Z,18.20
2018-08-17T18:29:20.422Z,18.10
2018-08-17T18:31:48.886Z,18.00
2018-08-17T18:34:17.333Z,17.90
2018-08-17T18:36:46.008Z,17.80
2018-08-17T18:39:15.540Z,17.80
2018-08-17T18:41:44.709Z,17.70
2018-08-17T18:44:13.461Z,17.60
2018-08-17T18:46:41.952Z,17.60
2018-08-17T18:49:10.387Z,17.50
2018-08-17T18:51:39.040Z,17.50
2018-08-17T18:54:08.477Z,17.50
2018-08-17T18:56:36.937Z,17.40
2018-08-17T18:59:05.628Z,17.40
2018-08-17T19:01:34.060Z,17.40
2018-08-17T19:04:02.550Z,17.30
2018-08-17T19:06:30.994Z,17.20
2018-08-17T19:09:00.124Z,17.20
2018-08-17T19:11:28.577Z,17.20
2018-08-17T19:13:57.013Z,17.10
2018-08-17T19:16:25.501Z,17.10
2018-08-17T19:18:54.105Z,17.00
2018-08-17T19:21:22.520Z,17.00
2018-08-17T19:23:51.686Z,17.00
2018-08-17T19:26:20.212Z,17.00
2018-08-17T19:28:52.788Z,17.00
2018-08-17T19:31:21.408Z,17.00
2018-08-17T19:33:49.957Z,16.90
2018-08-17T19:36:18.491Z,16.90
2018-08-17T19:38:47.501Z,16.80
2018-08-17T19:41:16.080Z,16.80
2018-08-17T19:43:45.248Z,16.70
2018-08-17T19:46:13.845Z,16.80
2018-08-17T19:48:42.301Z,16.70
2018-08-17T19:51:16.021Z,16.90
2018-08-17T19:53:44.624Z,16.80
2018-08-17T19:56:13.374Z,16.70
2018-08-17T19:58:42.209Z,16.70
2018-08-17T20:01:10.784Z,16.80
2018-08-17T20:03:39.345Z,16.70
2018-08-17T20:06:07.946Z,16.70
2018-08-17T20:08:36.390Z,16.70
2018-08-17T20:11:05.133Z,16.70
2018-08-17T20:13:33.682Z,16.70
2018-08-17T20:16:02.855Z,16.70
2018-08-17T20:18:31.408Z,16.60
2018-08-17T20:20:59.940Z,16.50
2018-08-17T20:23:28.407Z,16.50
2018-08-17T20:25:57.016Z,16.50
2018-08-17T20:28:25.649Z,16.50
2018-08-17T20:30:54.156Z,16.50
2018-08-17T20:33:26.866Z,16.50
2018-08-17T20:35:56.113Z,16.50
2018-08-17T20:38:24.613Z,16.50
2018-08-17T20:40:57.945Z,16.50
2018-08-17T20:43:27.303Z,16.50
2018-08-17T20:45:55.783Z,16.40
2018-08-17T20:48:24.467Z,16.40
2018-08-17T20:50:52.941Z,16.30
2018-08-17T20:53:22.034Z,16.30
2018-08-17T20:55:50.488Z,16.30
2018-08-17T20:58:19.365Z,16.30
2018-08-17T21:00:47.851Z,16.20
2018-08-17T21:03:16.407Z,16.30
2018-08-17T21:05:44.912Z,16.20
2018-08-17T21:08:13.508Z,16.20
2018-08-17T21:10:41.940Z,16.20
2018-08-17T21:13:10.357Z,16.20
2018-08-17T21:15:38.831Z,16.20
2018-08-17T21:18:07.383Z,16.10
2018-08-17T21:20:35.838Z,16.10
2018-08-17T21:23:04.281Z,16.10
2018-08-17T21:25:32.764Z,16.00
2018-08-17T21:28:02.040Z,16.00
2018-08-17T21:30:30.643Z,16.00
2018-08-17T21:32:59.181Z,16.00
2018-08-17T21:35:28.779Z,16.00
2018-08-17T21:37:57.232Z,15.90
2018-08-17T21:40:29.583Z,15.90
2018-08-17T21:43:00.164Z,15.90
2018-08-17T21:45:28.622Z,15.80
2018-08-17T21:47:57.089Z,15.80
2018-08-17T21:50:25.555Z,15.80
2018-08-17T21:52:54.042Z,15.80
2018-08-17T21:55:22.471Z,15.80
2018-08-17T21:57:50.951Z,15.70
2018-08-17T22:00:26.800Z,15.70
2018-08-17T22:02:55.293Z,15.70
2018-08-17T22:05:28.387Z,15.70
2018-08-17T22:07:56.820Z,15.70
2018-08-17T22:10:25.322Z,15.70
2018-08-17T22:12:53.893Z,15.80
2018-08-17T22:15:22.640Z,16.10
2018-08-17T22:17:51.237Z,16.10
2018-08-17T22:20:19.702Z,16.20
2018-08-17T22:22:48.235Z,16.20
2018-08-17T22:25:17.965Z,16.20
2018-08-17T22:27:49.019Z,16.20
2018-08-17T22:30:20.502Z,16.50
2018-08-17T22:32:49.208Z,16.50
2018-08-17T22:35:17.973Z,16.60
2018-08-17T22:37:46.436Z,16.50
2018-08-17T22:40:14.918Z,16.50
2018-08-17T22:42:44.800Z,16.50
2018-08-17T22:45:13.237Z,16.50
2018-08-17T22:47:41.639Z,16.50
2018-08-17T22:50:10.084Z,16.50
2018-08-17T22:52:38.489Z,16.60
2018-08-17T22:55:09.104Z,16.50
2018-08-17T22:57:37.533Z,16.50
2018-08-17T23:00:19.185Z,16.50
2018-08-17T23:02:48.984Z,16.50
2018-08-17T23:05:26.590Z,16.70
2018-08-17T23:07:55.033Z,16.80
2018-08-17T23:10:25.792Z,16.90
2018-08-17T23:12:55.363Z,16.80
2018-08-17T23:15:23.931Z,16.70
2018-08-17T23:18:00.092Z,16.70
2018-08-17T23:20:33.648Z,16.60
2018-08-17T23:23:02.935Z,16.70
2018-08-17T23:25:31.735Z,16.80
2018-08-17T23:28:00.172Z,16.90
2018-08-17T23:30:28.806Z,16.80
2018-08-17T23:32:57.419Z,16.90
2018-08-17T23:35:25.863Z,16.90
2018-08-17T23:37:54.463Z,17.00
2018-08-17T23:40:22.953Z,17.00
2018-08-17T23:42:51.450Z,16.90
2018-08-17T23:45:19.920Z,17.00
2018-08-17T23:47:48.473Z,16.90
2018-08-17T23:50:17.352Z,16.80
2018-08-17T23:52:46.759Z,16.60
2018-08-17T23:55:16.840Z,16.50
2018-08-17T23:57:45.340Z,16.60
